createdAt,value
2023-03-16T00:03:21.525Z,3.80
2023-03-16T00:08:23.149Z,4.32
2023-03-16T00:13:25.202Z,4.03
2023-03-16T00:18:28.898Z,4.70
2023-03-16T00:23:35.515Z,3.90
2023-03-16T00:28:37.128Z,3.20
2023-03-16T00:33:39.445Z,3.65
2023-03-16T00:38:45.688Z,3.45
2023-03-16T00:43:48.759Z,3.20
2023-03-16T00:48:51.358Z,3.85
2023-03-16T00:53:52.792Z,3.00
2023-03-16T00:58:57.594Z,2.92
2023-03-16T01:03:59.779Z,2.80
2023-03-16T01:09:02.551Z,3.42
2023-03-16T01:14:04.852Z,3.35
2023-03-16T01:19:06.365Z,3.40
2023-03-16T01:24:09.118Z,3.17
2023-03-16T01:29:12.308Z,3.28
2023-03-16T01:34:17.803Z,3.38
2023-03-16T01:39:19.959Z,3.08
2023-03-16T01:44:35.065Z,3.28
2023-03-16T01:49:40.494Z,3.85
2023-03-16T01:54:57.191Z,3.63
2023-03-16T02:00:10.947Z,3.35
2023-03-16T02:05:33.103Z,3.25
2023-03-16T02:10:37.266Z,3.70
2023-03-16T02:20:53.408Z,3.20
2023-03-16T02:26:03.136Z,3.33
2023-03-16T02:31:07.441Z,3.15
2023-03-16T02:36:09.623Z,3.22
2023-03-16T02:41:18.708Z,3.30
2023-03-16T02:46:26.680Z,3.92
2023-03-16T02:51:28.907Z,3.38
2023-03-16T02:56:30.901Z,3.50
2023-03-16T03:01:34.676Z,3.60
2023-03-16T03:06:36.207Z,3.40
2023-03-16T03:11:38.365Z,4.43
2023-03-16T03:16:40.206Z,3.00
2023-03-16T03:21:41.779Z,3.60
2023-03-16T03:26:44.946Z,4.00
2023-03-16T03:31:52.139Z,3.80
2023-03-16T03:36:53.731Z,3.30
2023-03-16T03:41:55.656Z,3.97
2023-03-16T03:46:58.192Z,3.77
2023-03-16T03:52:04.838Z,3.70
2023-03-16T03:57:06.434Z,3.60
2023-03-16T04:02:09.396Z,3.58
2023-03-16T04:07:16.520Z,3.95
2023-03-16T04:12:19.562Z,3.58
2023-03-16T04:17:22.237Z,3.93
2023-03-16T04:22:25.046Z,3.22
2023-03-16T04:27:26.535Z,3.30
2023-03-16T04:32:28.074Z,3.70
2023-03-16T04:37:31.043Z,2.75
2023-03-16T04:42:32.520Z,3.13
2023-03-16T04:47:34.555Z,2.95
2023-03-16T04:52:36.598Z,3.05
2023-03-16T04:57:38.153Z,2.90
2023-03-16T05:02:39.640Z,2.80
2023-03-16T05:07:45.103Z,3.05
2023-03-16T05:12:46.915Z,3.33
2023-03-16T05:17:48.902Z,2.80
2023-03-16T05:22:52.210Z,3.40
2023-03-16T05:27:59.245Z,2.75
2023-03-16T05:33:23.413Z,3.50
2023-03-16T05:38:31.799Z,2.47
2023-03-16T05:43:34.279Z,2.72
2023-03-16T05:48:35.980Z,2.97
2023-03-16T05:53:38.362Z,2.97
2023-03-16T05:58:47.022Z,2.80
2023-03-16T06:03:50.037Z,2.97
2023-03-16T06:08:55.042Z,2.63
2023-03-16T06:14:00.858Z,2.92
2023-03-16T06:19:02.532Z,2.85
2023-03-16T06:24:07.618Z,2.75
2023-03-16T06:34:12.523Z,2.28
2023-03-16T06:39:14.903Z,3.20
2023-03-16T06:44:22.351Z,2.33
2023-03-16T06:49:43.182Z,2.67
2023-03-16T06:54:52.728Z,2.28
2023-03-16T06:59:55.068Z,2.67
2023-03-16T07:04:56.466Z,2.10
2023-03-16T07:09:58.756Z,2.40
2023-03-16T07:15:01.073Z,2.30
2023-03-16T07:20:10.529Z,2.45
2023-03-16T07:25:13.880Z,2.55
2023-03-16T07:30:20.314Z,2.22
2023-03-16T07:35:23.914Z,1.95
2023-03-16T07:40:25.592Z,2.45
2023-03-16T07:45:31.725Z,2.33
2023-03-16T07:50:33.336Z,2.00
2023-03-16T07:55:36.544Z,1.83
2023-03-16T08:00:39.950Z,2.03
2023-03-16T08:05:41.668Z,2.07
2023-03-16T08:10:49.880Z,1.88
2023-03-16T08:16:03.461Z,1.73
2023-03-16T08:21:10.578Z,1.63
2023-03-16T08:26:12.148Z,1.90
2023-03-16T08:31:15.227Z,1.98
2023-03-16T08:36:25.385Z,1.70
2023-03-16T08:41:30.805Z,1.65
2023-03-16T08:46:35.592Z,1.83
2023-03-16T08:51:37.616Z,1.30
2023-03-16T08:56:39.109Z,1.38
2023-03-16T09:01:41.220Z,1.40
2023-03-16T09:06:42.634Z,1.20
2023-03-16T09:11:44.353Z,1.73
2023-03-16T09:16:45.870Z,1.00
2023-03-16T09:21:47.540Z,1.20
2023-03-16T09:26:49.086Z,1.17
2023-03-16T09:31:50.735Z,1.00
2023-03-16T09:36:53.642Z,1.20
2023-03-16T09:42:08.458Z,1.27
2023-03-16T09:47:12.110Z,0.90
2023-03-16T09:52:30.194Z,1.20
2023-03-16T09:57:35.927Z,0.95
2023-03-16T10:02:51.200Z,1.00
2023-03-16T10:08:04.957Z,1.10
2023-03-16T10:13:17.730Z,1.40
2023-03-16T10:18:24.691Z,0.90
2023-03-16T10:23:26.778Z,0.98
2023-03-16T10:28:32.346Z,1.63
2023-03-16T10:33:36.448Z,1.40
2023-03-16T10:38:40.452Z,1.27
2023-03-16T10:43:42.140Z,1.30
2023-03-16T10:49:01.276Z,1.33
2023-03-16T10:54:19.767Z,1.55
2023-03-16T10:59:27.694Z,1.63
2023-03-16T11:04:33.850Z,1.65
2023-03-16T11:09:37.052Z,1.70
2023-03-16T11:14:38.530Z,1.70
2023-03-16T11:19:52.764Z,1.50
2023-03-16T11:25:04.114Z,1.95
2023-03-16T11:30:14.958Z,1.67
2023-03-16T11:35:23.646Z,1.75
2023-03-16T11:40:53.818Z,1.65
2023-03-16T11:46:20.553Z,2.30
2023-03-16T11:51:43.178Z,1.73
2023-03-16T11:56:50.559Z,1.83
2023-03-16T12:02:00.204Z,1.70
2023-03-16T12:07:15.903Z,1.40
2023-03-16T12:12:23.435Z,1.73
2023-03-16T12:17:31.944Z,1.60
2023-03-16T12:22:39.539Z,1.60
2023-03-16T12:27:42.794Z,1.58
2023-03-16T12:32:53.576Z,1.52
2023-03-16T12:38:22.465Z,1.90
2023-03-16T12:43:31.784Z,1.70
2023-03-16T12:48:40.506Z,2.20
2023-03-16T12:53:53.490Z,1.85
2023-03-16T12:58:57.755Z,2.28
2023-03-16T13:04:03.405Z,2.40
2023-03-16T13:09:07.159Z,2.08
2023-03-16T13:14:12.558Z,2.45
2023-03-16T13:19:19.762Z,2.47
2023-03-16T13:24:49.530Z,2.17
2023-03-16T13:29:58.999Z,3.38
2023-03-16T13:35:05.254Z,2.28
2023-03-16T13:40:24.743Z,2.38
2023-03-16T13:45:33.226Z,2.45
2023-03-16T13:50:36.100Z,2.50
2023-03-16T13:55:38.523Z,3.08
2023-03-16T14:00:43.816Z,2.90
2023-03-16T14:05:46.072Z,2.85
2023-03-16T14:10:48.374Z,2.22
2023-03-16T14:15:50.480Z,2.60
2023-03-16T14:20:53.783Z,2.43
2023-03-16T14:25:55.704Z,2.60
2023-03-16T14:31:10.978Z,2.55
2023-03-16T14:36:14.970Z,2.42
2023-03-16T14:41:26.180Z,1.98
2023-03-16T14:46:31.249Z,2.70
2023-03-16T14:51:34.770Z,2.90
2023-03-16T14:56:36.502Z,2.53
2023-03-16T15:01:38.586Z,2.33
2023-03-16T15:06:40.514Z,2.30
2023-03-16T15:11:43.846Z,3.08
2023-03-16T15:16:46.275Z,3.40
2023-03-16T15:21:47.687Z,3.10
2023-03-16T15:26:49.263Z,3.70
2023-03-16T15:31:53.387Z,3.67
2023-03-16T15:36:56.186Z,3.47
2023-03-16T15:41:57.606Z,3.55
2023-03-16T15:47:00.476Z,3.63
2023-03-16T15:57:03.671Z,3.70
2023-03-16T16:02:25.246Z,4.40
2023-03-16T16:07:27.243Z,3.38
2023-03-16T16:12:30.877Z,4.03
2023-03-16T16:17:46.052Z,3.60
2023-03-16T16:22:59.587Z,3.42
2023-03-16T16:28:01.119Z,4.57
2023-03-16T16:33:03.063Z,4.03
2023-03-16T16:38:04.488Z,3.55
2023-03-16T16:43:06.401Z,3.40
2023-03-16T16:48:28.360Z,3.50
2023-03-16T16:53:29.938Z,4.18
2023-03-16T16:58:32.170Z,4.10
2023-03-16T17:03:33.902Z,4.53
2023-03-16T17:08:35.312Z,5.32
2023-03-16T17:13:40.074Z,4.68
2023-03-16T17:18:42.528Z,4.38
2023-03-16T17:23:44.554Z,4.65
2023-03-16T17:28:56.920Z,5.55
2023-03-16T17:33:58.431Z,6.07
2023-03-16T17:39:01.995Z,5.45
2023-03-16T17:44:05.435Z,4.88
2023-03-16T17:49:19.843Z,5.90
2023-03-16T17:54:21.435Z,4.78
2023-03-16T17:59:23.106Z,6.03
2023-03-16T18:04:25.865Z,5.78
2023-03-16T18:09:28.599Z,4.40
2023-03-16T18:14:36.046Z,4.78
2023-03-16T18:19:37.689Z,4.30
2023-03-16T18:24:40.014Z,4.38
2023-03-16T18:29:41.926Z,4.27
2023-03-16T18:34:43.548Z,4.30
2023-03-16T18:39:45.406Z,3.60
2023-03-16T18:44:47.033Z,4.47
2023-03-16T18:49:52.808Z,3.70
2023-03-16T18:54:55.559Z,4.07
2023-03-16T18:59:57.004Z,4.28
2023-03-16T19:05:01.251Z,3.95
2023-03-16T19:10:08.483Z,4.45
2023-03-16T19:15:33.799Z,3.70
2023-03-16T19:20:35.520Z,4.03
2023-03-16T19:25:39.731Z,3.45
2023-03-16T19:30:41.737Z,3.90
2023-03-16T19:35:51.536Z,3.40
2023-03-16T19:40:58.934Z,4.03
2023-03-16T19:46:00.412Z,3.80
2023-03-16T19:51:02.033Z,3.80
2023-03-16T19:56:03.743Z,3.47
2023-03-16T20:01:21.997Z,3.97
2023-03-16T20:06:24.130Z,3.50
2023-03-16T20:11:30.031Z,3.67
2023-03-16T20:16:34.348Z,3.30
2023-03-16T20:21:36.026Z,3.00
2023-03-16T20:26:37.523Z,3.33
2023-03-16T20:31:39.111Z,3.45
2023-03-16T20:36:40.503Z,3.30
2023-03-16T20:41:42.416Z,3.22
2023-03-16T20:46:44.901Z,3.22
2023-03-16T20:51:46.341Z,4.20
2023-03-16T20:56:48.038Z,3.80
2023-03-16T21:01:50.128Z,3.45
2023-03-16T21:06:51.844Z,3.30
2023-03-16T21:11:53.372Z,3.53
2023-03-16T21:16:54.944Z,3.25
2023-03-16T21:21:56.347Z,3.10
2023-03-16T21:26:57.789Z,3.22
2023-03-16T21:31:59.240Z,3.65
2023-03-16T21:37:00.773Z,2.97
2023-03-16T21:42:02.175Z,3.53
2023-03-16T21:47:06.419Z,3.55
2023-03-16T21:52:30.096Z,3.72
2023-03-16T21:57:32.228Z,3.40
2023-03-16T22:02:35.809Z,3.42
2023-03-16T22:07:37.482Z,3.60
2023-03-16T22:12:38.906Z,3.85
2023-03-16T22:17:40.622Z,3.50
2023-03-16T22:22:42.356Z,3.85
2023-03-16T22:27:44.006Z,4.25
2023-03-16T22:32:48.937Z,5.53
2023-03-16T22:37:50.538Z,4.97
2023-03-16T22:42:52.010Z,4.68
2023-03-16T22:47:56.269Z,3.95
2023-03-16T22:53:00.788Z,3.65
2023-03-16T22:58:08.363Z,3.42
2023-03-16T23:03:16.879Z,2.45
2023-03-16T23:08:22.749Z,3.13
2023-03-16T23:13:25.425Z,3.33
2023-03-16T23:18:26.883Z,2.92
2023-03-16T23:23:28.296Z,3.72
2023-03-16T23:28:29.718Z,3.40
2023-03-16T23:33:31.170Z,3.22
2023-03-16T23:38:32.599Z,3.50
2023-03-16T23:43:34.443Z,3.25
2023-03-16T23:48:38.224Z,3.40
2023-03-16T23:53:40.298Z,2.97
2023-03-16T23:58:41.865Z,3.22
